createdAt,value
2023-04-09T09:25:23.488Z,22.20
2023-04-09T09:26:20.618Z,19.50
2023-04-09T09:27:20.591Z,20.40
2023-04-09T09:28:20.649Z,19.60
2023-04-09T09:29:20.806Z,20.30
2023-04-09T09:30:20.660Z,19.80
2023-04-09T09:31:20.620Z,19.70
2023-04-09T09:32:20.693Z,19.40
2023-04-09T09:33:20.722Z,18.50
2023-04-09T09:34:20.737Z,19.30
2023-04-09T09:35:20.676Z,18.60
2023-04-09T09:36:20.674Z,18.20
2023-04-09T09:37:20.657Z,18.60
2023-04-09T09:38:20.683Z,18.80
2023-04-09T09:39:20.681Z,18.10
2023-04-09T09:40:20.852Z,18.20
2023-04-09T09:41:20.740Z,18.30
2023-04-09T09:42:20.907Z,17.90
2023-04-09T09:43:20.763Z,17.70
2023-04-09T09:44:20.793Z,18.80
2023-04-09T09:45:20.936Z,18.40
2023-04-09T09:46:20.853Z,19.50
2023-04-09T09:47:20.805Z,18.60
2023-04-09T09:48:21.011Z,19.20
2023-04-09T09:49:20.965Z,18.40
2023-04-09T09:50:21.691Z,17.60
2023-04-09T09:51:21.045Z,17.80
2023-04-09T09:52:21.084Z,17.40
2023-04-09T09:53:21.057Z,17.40
2023-04-09T09:54:21.045Z,16.80
2023-04-09T09:55:21.049Z,18.10
2023-04-09T09:56:21.163Z,17.00
2023-04-09T09:57:21.140Z,17.30
2023-04-09T09:58:21.151Z,17.20
2023-04-09T09:59:21.233Z,15.60
2023-04-09T10:00:23.377Z,16.10
2023-04-09T10:01:21.228Z,17.00
2023-04-09T10:02:21.469Z,15.80
2023-04-09T10:03:21.400Z,15.90
2023-04-09T10:04:21.298Z,16.00
2023-04-09T10:05:21.256Z,15.60
2023-04-09T10:06:21.261Z,13.50
2023-04-09T10:07:21.252Z,13.00
2023-04-09T10:08:21.258Z,13.00
2023-04-09T10:09:21.317Z,12.20
2023-04-09T10:10:21.315Z,11.90
2023-04-09T10:11:21.315Z,11.10
2023-04-09T10:12:21.467Z,11.30
2023-04-09T10:13:21.358Z,11.70
2023-04-09T10:14:21.444Z,12.00
2023-04-09T10:15:21.488Z,10.90
2023-04-09T10:16:21.519Z,11.00
2023-04-09T10:17:21.681Z,11.00
2023-04-09T10:18:21.462Z,11.30
2023-04-09T10:19:21.538Z,11.20
2023-04-09T10:20:21.576Z,11.00
2023-04-09T10:21:21.641Z,11.30
2023-04-09T10:22:21.649Z,12.10
2023-04-09T10:23:21.701Z,11.40
2023-04-09T10:24:24.262Z,11.00
2023-04-09T10:25:21.772Z,10.90
2023-04-09T10:26:21.758Z,11.00
2023-04-09T10:27:21.751Z,11.70
2023-04-09T10:28:21.745Z,10.90
2023-04-09T10:29:21.771Z,11.10
2023-04-09T10:30:22.456Z,11.00
2023-04-09T10:31:21.716Z,11.10
2023-04-09T10:32:21.849Z,9.60
2023-04-09T10:33:21.741Z,10.60
2023-04-09T10:34:21.697Z,10.20
2023-04-09T10:35:21.746Z,10.00
2023-04-09T10:36:21.779Z,10.20
2023-04-09T10:37:21.715Z,9.00
2023-04-09T10:38:21.746Z,8.80
2023-04-09T10:39:21.830Z,8.50
2023-04-09T10:40:21.881Z,8.90
2023-04-09T10:41:21.763Z,9.30
2023-04-09T10:42:21.779Z,8.30
2023-04-09T10:43:21.751Z,9.70
2023-04-09T10:44:21.741Z,9.90
2023-04-09T10:45:22.604Z,10.00
2023-04-09T10:46:21.778Z,9.50
2023-04-09T10:47:21.779Z,9.50
2023-04-09T10:48:21.821Z,9.40
2023-04-09T10:49:21.743Z,9.40
2023-04-09T10:50:22.230Z,9.70
2023-04-09T10:51:21.837Z,9.60
2023-04-09T10:52:21.937Z,9.70
2023-04-09T10:53:21.917Z,9.40
2023-04-09T10:54:21.960Z,9.70
2023-04-09T10:55:22.058Z,10.20
2023-04-09T10:56:21.986Z,10.50
2023-04-09T10:57:21.992Z,10.70
2023-04-09T10:58:21.997Z,11.10
2023-04-09T10:59:22.048Z,10.90
2023-04-09T11:00:22.321Z,11.10
2023-04-09T11:01:22.053Z,10.50
2023-04-09T11:02:22.315Z,10.40
2023-04-09T11:03:22.295Z,10.70
2023-04-09T11:04:22.297Z,10.50
2023-04-09T11:05:22.167Z,10.70
2023-04-09T11:06:22.222Z,10.40
2023-04-09T11:07:22.355Z,11.00
2023-04-09T11:08:22.360Z,10.70
2023-04-09T11:09:22.299Z,10.10
2023-04-09T11:10:22.643Z,10.70
2023-04-09T11:11:22.309Z,11.50
2023-04-09T11:12:22.372Z,12.00
2023-04-09T11:13:22.432Z,11.50
2023-04-09T11:14:22.531Z,11.20
2023-04-09T11:15:22.445Z,11.40
2023-04-09T11:16:24.796Z,11.70
2023-04-09T11:17:22.466Z,11.70
2023-04-09T11:18:22.541Z,10.80
2023-04-09T11:19:22.524Z,10.50
2023-04-09T11:20:22.841Z,11.60
2023-04-09T11:21:22.487Z,10.90
2023-04-09T11:22:22.500Z,10.80
2023-04-09T11:23:22.565Z,11.50
2023-04-09T11:24:22.544Z,10.80
2023-04-09T11:25:22.517Z,11.30
2023-04-09T11:26:22.531Z,11.10
2023-04-09T11:27:22.509Z,10.80
2023-04-09T11:28:22.556Z,10.40
2023-04-09T11:29:22.515Z,10.20
2023-04-09T11:30:22.567Z,10.20
2023-04-09T11:31:22.596Z,10.30
2023-04-09T11:32:22.717Z,11.10
2023-04-09T11:33:22.618Z,10.60
2023-04-09T11:34:22.567Z,10.80
2023-04-09T11:35:22.632Z,10.80
2023-04-09T11:36:22.571Z,9.80
2023-04-09T11:37:22.527Z,9.50
2023-04-09T11:38:22.508Z,9.40
2023-04-09T11:39:22.544Z,9.00
2023-04-09T11:40:22.866Z,9.70
2023-04-09T11:41:22.556Z,9.80
2023-04-09T11:42:22.599Z,9.50
2023-04-09T11:43:22.595Z,9.50
2023-04-09T11:44:22.666Z,9.60
2023-04-09T11:45:22.625Z,9.60
2023-04-09T11:46:22.698Z,9.40
2023-04-09T11:47:22.618Z,9.40
2023-04-09T11:48:22.712Z,9.50
2023-04-09T11:49:22.561Z,9.70
2023-04-09T11:50:22.918Z,9.10
2023-04-09T11:51:22.592Z,9.20
2023-04-09T11:52:22.564Z,9.60
2023-04-09T11:53:22.604Z,9.50
2023-04-09T11:54:22.784Z,9.50
2023-04-09T11:55:22.637Z,9.70
2023-04-09T11:56:22.634Z,9.60
2023-04-09T11:57:22.613Z,9.80
2023-04-09T11:58:22.695Z,8.80
2023-04-09T11:59:22.620Z,9.90
2023-04-09T12:00:22.946Z,9.40
2023-04-09T12:01:22.671Z,9.40
2023-04-09T12:02:22.794Z,9.70
2023-04-09T12:03:22.944Z,8.90
2023-04-09T12:04:22.707Z,8.60
2023-04-09T12:05:22.655Z,9.50
2023-04-09T12:06:22.771Z,9.60
2023-04-09T12:07:22.642Z,9.80
2023-04-09T12:08:22.686Z,9.60
2023-04-09T12:09:22.635Z,9.80
2023-04-09T12:10:22.782Z,9.70
2023-04-09T12:11:22.728Z,9.40
2023-04-09T12:12:22.632Z,9.90
2023-04-09T12:13:22.707Z,9.10
2023-04-09T12:14:22.733Z,9.50
2023-04-09T12:15:22.639Z,9.70
2023-04-09T12:16:22.858Z,8.80
2023-04-09T12:17:22.680Z,9.30
2023-04-09T12:18:22.861Z,8.70
2023-04-09T12:19:22.659Z,9.00
2023-04-09T12:20:22.736Z,9.80
2023-04-09T12:21:22.713Z,9.00
2023-04-09T12:22:22.700Z,9.20
2023-04-09T12:23:22.733Z,9.60
2023-04-09T12:24:22.686Z,9.50
2023-04-09T12:25:22.865Z,9.30
2023-04-09T12:26:22.764Z,9.40
2023-04-09T12:27:22.676Z,9.40
2023-04-09T12:28:22.693Z,8.90
2023-04-09T12:29:22.791Z,9.80
2023-04-09T12:30:22.750Z,9.50
2023-04-09T12:31:22.769Z,9.40
2023-04-09T12:32:22.764Z,9.90
2023-04-09T12:33:22.841Z,9.80
2023-04-09T12:34:22.674Z,10.20
2023-04-09T12:35:22.805Z,10.20
2023-04-09T12:36:22.759Z,9.80
2023-04-09T12:37:22.667Z,9.20
2023-04-09T12:38:22.757Z,9.90
2023-04-09T12:39:22.796Z,9.90
2023-04-09T12:40:22.839Z,8.80
2023-04-09T12:41:22.758Z,9.70
2023-04-09T12:42:22.885Z,10.10
2023-04-09T12:43:22.927Z,9.90
2023-04-09T12:44:22.903Z,10.40
2023-04-09T12:45:22.921Z,9.90
2023-04-09T12:46:22.940Z,10.50
2023-04-09T12:47:22.965Z,9.80
2023-04-09T12:48:22.948Z,9.30
2023-04-09T12:49:22.931Z,9.40
2023-04-09T12:50:23.013Z,9.40
2023-04-09T12:51:23.163Z,9.70
2023-04-09T12:52:23.027Z,10.10
2023-04-09T12:53:23.076Z,10.10
2023-04-09T12:54:23.054Z,10.30
2023-04-09T12:55:23.087Z,10.20
2023-04-09T12:56:23.134Z,10.20
2023-04-09T12:57:23.292Z,10.30
2023-04-09T12:58:23.345Z,10.60
2023-04-09T12:59:24.140Z,10.20
2023-04-09T13:00:23.244Z,9.80
2023-04-09T13:01:23.286Z,9.20
2023-04-09T13:02:23.485Z,9.40
2023-04-09T13:03:23.479Z,9.20
2023-04-09T13:04:25.262Z,9.70
2023-04-09T13:05:23.402Z,9.40
2023-04-09T13:06:23.284Z,9.40
2023-04-09T13:07:23.301Z,8.50
2023-04-09T13:08:23.468Z,8.30
2023-04-09T13:09:23.325Z,8.10
2023-04-09T13:10:23.851Z,8.00
2023-04-09T13:11:23.341Z,7.40
2023-04-09T13:12:23.315Z,8.20
2023-04-09T13:13:23.341Z,7.80
